createdAt,value
2023-02-11T00:00:58.800Z,20.60
2023-02-11T00:03:26.026Z,20.60
2023-02-11T00:06:05.215Z,20.60
2023-02-11T00:08:32.035Z,20.60
2023-02-11T00:10:59.096Z,20.60
2023-02-11T00:13:25.807Z,20.60
2023-02-11T00:15:52.791Z,20.60
2023-02-11T00:18:19.684Z,20.60
2023-02-11T00:20:46.526Z,20.60
2023-02-11T00:23:13.279Z,20.60
2023-02-11T00:25:41.921Z,20.60
2023-02-11T00:28:09.921Z,20.60
2023-02-11T00:30:37.357Z,20.60
2023-02-11T00:33:04.357Z,20.60
2023-02-11T00:35:31.159Z,20.70
2023-02-11T00:37:57.946Z,20.70
2023-02-11T00:40:25.032Z,20.70
2023-02-11T00:42:51.701Z,20.70
2023-02-11T00:45:20.800Z,20.70
2023-02-11T00:47:47.936Z,20.70
2023-02-11T00:50:14.658Z,20.70
2023-02-11T00:52:41.430Z,20.60
2023-02-11T00:55:08.381Z,20.70
2023-02-11T00:57:35.113Z,20.70
2023-02-11T01:00:01.809Z,20.70
2023-02-11T01:02:28.570Z,20.70
2023-02-11T01:04:55.347Z,20.70
2023-02-11T01:07:22.046Z,20.70
2023-02-11T01:09:48.718Z,20.70
2023-02-11T01:12:15.452Z,20.70
2023-02-11T01:14:42.150Z,20.70
2023-02-11T01:17:09.202Z,20.70
2023-02-11T01:19:37.584Z,20.70
2023-02-11T01:22:04.822Z,20.70
2023-02-11T01:24:32.140Z,20.70
2023-02-11T01:26:58.817Z,20.70
2023-02-11T01:29:25.592Z,20.70
2023-02-11T01:31:52.504Z,20.70
2023-02-11T01:34:19.210Z,20.70
2023-02-11T01:36:45.920Z,20.70
2023-02-11T01:39:12.642Z,20.70
2023-02-11T01:41:39.335Z,20.70
2023-02-11T01:44:40.043Z,20.70
2023-02-11T01:47:06.942Z,20.70
2023-02-11T01:49:38.473Z,20.70
2023-02-11T01:52:20.034Z,20.70
2023-02-11T01:55:09.865Z,20.70
2023-02-11T01:57:38.933Z,20.70
2023-02-11T02:00:21.514Z,20.60
2023-02-11T02:02:50.996Z,20.70
2023-02-11T02:05:38.442Z,20.70
2023-02-11T02:08:05.194Z,20.70
2023-02-11T02:10:35.202Z,20.70
2023-02-11T02:13:02.011Z,20.70
2023-02-11T02:15:33.060Z,20.60
2023-02-11T02:18:12.345Z,20.60
2023-02-11T02:20:57.764Z,20.60
2023-02-11T02:23:54.671Z,20.70
2023-02-11T02:26:40.187Z,20.70
2023-02-11T02:29:47.685Z,20.70
2023-02-11T02:32:35.266Z,20.60
2023-02-11T02:35:39.526Z,20.60
2023-02-11T02:38:24.871Z,20.60
2023-02-11T02:41:01.429Z,20.60
2023-02-11T02:43:29.733Z,20.60
2023-02-11T02:46:08.996Z,20.70
2023-02-11T02:48:35.820Z,20.60
2023-02-11T02:51:32.162Z,20.60
2023-02-11T02:54:33.292Z,20.60
2023-02-11T02:57:24.259Z,20.60
2023-02-11T02:59:53.710Z,20.60
2023-02-11T03:02:31.448Z,20.60
2023-02-11T03:05:18.577Z,20.60
2023-02-11T03:07:57.721Z,20.60
2023-02-11T03:10:42.556Z,20.60
2023-02-11T03:13:10.115Z,20.60
2023-02-11T03:15:44.104Z,20.60
2023-02-11T03:18:15.532Z,20.70
2023-02-11T03:20:45.331Z,20.70
2023-02-11T03:23:18.892Z,20.70
2023-02-11T03:26:05.040Z,20.70
2023-02-11T03:28:41.236Z,20.70
2023-02-11T03:31:11.344Z,20.70
2023-02-11T03:33:49.234Z,20.70
2023-02-11T03:36:24.493Z,20.70
2023-02-11T03:38:56.887Z,20.80
2023-02-11T03:41:25.116Z,20.80
2023-02-11T03:43:56.768Z,20.70
2023-02-11T03:46:30.582Z,20.70
2023-02-11T03:49:02.216Z,20.80
2023-02-11T03:51:31.628Z,20.80
2023-02-11T03:54:01.979Z,20.80
2023-02-11T03:56:33.162Z,20.80
2023-02-11T03:58:59.933Z,20.80
2023-02-11T04:01:26.779Z,20.80
2023-02-11T04:03:53.530Z,20.80
2023-02-11T04:06:20.209Z,20.80
2023-02-11T04:08:46.924Z,20.80
2023-02-11T04:11:13.691Z,20.80
2023-02-11T04:13:40.449Z,20.80
2023-02-11T04:16:07.401Z,20.80
2023-02-11T04:18:34.097Z,20.80
2023-02-11T04:21:00.771Z,20.80
2023-02-11T04:23:27.582Z,20.80
2023-02-11T04:25:54.278Z,20.80
2023-02-11T04:28:21.198Z,20.80
2023-02-11T04:30:50.819Z,20.80
2023-02-11T04:33:17.973Z,20.90
2023-02-11T04:35:44.929Z,20.80
2023-02-11T04:38:11.646Z,20.80
2023-02-11T04:40:38.431Z,20.80
2023-02-11T04:43:05.108Z,20.80
2023-02-11T04:45:32.031Z,20.80
2023-02-11T04:47:58.797Z,20.80
2023-02-11T04:50:25.559Z,20.80
2023-02-11T04:52:52.243Z,20.90
2023-02-11T04:55:18.997Z,20.90
2023-02-11T04:57:45.697Z,20.80
2023-02-11T05:00:12.957Z,20.90
2023-02-11T05:02:39.682Z,20.90
2023-02-11T05:05:06.518Z,20.90
2023-02-11T05:07:33.383Z,20.80
2023-02-11T05:10:00.122Z,20.90
2023-02-11T05:12:26.853Z,20.90
2023-02-11T05:14:53.544Z,20.90
2023-02-11T05:17:20.284Z,20.90
2023-02-11T05:19:46.956Z,20.80
2023-02-11T05:22:13.616Z,20.90
2023-02-11T05:24:40.326Z,20.80
2023-02-11T05:27:07.015Z,20.90
2023-02-11T05:29:33.703Z,20.80
2023-02-11T05:32:00.493Z,20.80
2023-02-11T05:34:27.419Z,20.90
2023-02-11T05:36:54.259Z,20.90
2023-02-11T05:39:21.282Z,20.90
2023-02-11T05:41:47.959Z,20.90
2023-02-11T05:44:14.660Z,20.90
2023-02-11T05:46:41.388Z,20.80
2023-02-11T05:49:08.199Z,20.90
2023-02-11T05:51:34.930Z,20.90
2023-02-11T05:54:01.810Z,20.90
2023-02-11T05:56:28.541Z,20.90
2023-02-11T05:58:55.223Z,20.90
2023-02-11T06:01:21.890Z,20.90
2023-02-11T06:03:50.042Z,20.90
2023-02-11T06:06:16.955Z,20.90
2023-02-11T06:08:43.667Z,20.80
2023-02-11T06:11:10.374Z,20.80
2023-02-11T06:13:37.076Z,20.80
2023-02-11T06:16:03.998Z,20.80
2023-02-11T06:18:30.821Z,20.80
2023-02-11T06:20:57.505Z,20.80
2023-02-11T06:23:24.270Z,20.80
2023-02-11T06:25:52.004Z,20.80
2023-02-11T06:28:19.584Z,20.80
2023-02-11T06:30:46.380Z,20.80
2023-02-11T06:33:13.105Z,20.80
2023-02-11T06:35:39.918Z,20.80
2023-02-11T06:38:06.658Z,20.80
2023-02-11T06:40:33.325Z,20.80
2023-02-11T06:43:00.018Z,20.80
2023-02-11T06:45:26.776Z,20.90
2023-02-11T06:47:53.466Z,20.90
2023-02-11T06:50:20.315Z,20.90
2023-02-11T06:52:47.086Z,21.00
2023-02-11T06:55:14.422Z,21.00
2023-02-11T06:57:41.197Z,21.00
2023-02-11T07:00:09.282Z,21.10
2023-02-11T07:02:36.431Z,21.10
2023-02-11T07:05:03.204Z,21.10
2023-02-11T07:07:32.353Z,21.10
2023-02-11T07:10:00.387Z,21.20
2023-02-11T07:12:27.085Z,21.20
2023-02-11T07:14:53.762Z,21.20
2023-02-11T07:17:20.424Z,21.20
2023-02-11T07:19:47.099Z,21.30
2023-02-11T07:22:13.765Z,21.30
2023-02-11T07:24:40.557Z,21.30
2023-02-11T07:27:07.337Z,21.40
2023-02-11T07:29:34.112Z,21.40
2023-02-11T07:32:01.005Z,21.40
2023-02-11T07:34:27.832Z,21.50
2023-02-11T07:36:54.862Z,21.50
2023-02-11T07:39:22.551Z,21.50
2023-02-11T07:41:49.331Z,21.50
2023-02-11T07:44:16.183Z,21.40
2023-02-11T07:46:45.177Z,21.40
2023-02-11T07:49:12.682Z,21.40
2023-02-11T07:51:39.546Z,21.40
2023-02-11T07:54:06.348Z,21.40
2023-02-11T07:56:33.860Z,21.50
2023-02-11T07:59:03.252Z,21.50
2023-02-11T08:01:30.483Z,21.50
2023-02-11T08:03:59.150Z,21.50
2023-02-11T08:06:28.978Z,21.40
2023-02-11T08:08:55.694Z,21.40
2023-02-11T08:11:28.210Z,21.40
2023-02-11T08:13:56.354Z,21.40
2023-02-11T08:16:34.191Z,21.40
2023-02-11T08:19:03.326Z,21.40
2023-02-11T08:21:30.344Z,21.40
2023-02-11T08:23:57.278Z,21.40
2023-02-11T08:26:27.493Z,21.30
2023-02-11T08:28:56.092Z,21.30
2023-02-11T08:31:33.308Z,21.30
2023-02-11T08:34:00.104Z,21.30
2023-02-11T08:36:30.861Z,21.30
2023-02-11T08:39:18.185Z,21.30
2023-02-11T08:41:50.842Z,21.30
2023-02-11T08:44:20.080Z,21.30
2023-02-11T08:46:47.286Z,21.30
2023-02-11T08:49:14.826Z,21.30
2023-02-11T08:51:42.030Z,21.30
2023-02-11T08:54:09.883Z,21.30
2023-02-11T08:56:38.271Z,21.30
2023-02-11T08:59:05.462Z,21.30
2023-02-11T09:01:32.435Z,21.30
2023-02-11T09:03:59.716Z,21.30
2023-02-11T09:06:28.166Z,21.30
2023-02-11T09:08:56.736Z,21.30
2023-02-11T09:11:34.045Z,21.30
2023-02-11T09:14:02.466Z,21.30
2023-02-11T09:16:31.740Z,21.30
2023-02-11T09:19:00.241Z,21.30
2023-02-11T09:21:27.919Z,21.40
2023-02-11T09:23:54.806Z,21.30
2023-02-11T09:26:24.432Z,21.30
2023-02-11T09:28:51.901Z,21.30
2023-02-11T09:31:21.670Z,21.30
2023-02-11T09:33:50.597Z,21.30
2023-02-11T09:36:20.577Z,21.30
2023-02-11T09:38:48.761Z,21.30
2023-02-11T09:41:25.892Z,21.30
2023-02-11T09:43:55.929Z,21.30
2023-02-11T09:46:24.210Z,21.30
2023-02-11T09:48:53.777Z,21.30
2023-02-11T09:51:40.695Z,21.30
2023-02-11T09:54:22.752Z,21.30
2023-02-11T09:56:49.442Z,21.30
2023-02-11T09:59:17.622Z,21.30
2023-02-11T10:01:58.639Z,21.30
2023-02-11T10:05:19.129Z,21.30
2023-02-11T10:07:57.001Z,21.30
2023-02-11T10:10:44.756Z,21.30
2023-02-11T10:13:17.198Z,21.30
2023-02-11T10:16:05.900Z,21.30
2023-02-11T10:18:59.518Z,21.40
2023-02-11T10:21:46.565Z,21.30
2023-02-11T10:24:15.723Z,21.40
2023-02-11T10:26:43.656Z,21.30
2023-02-11T10:29:35.432Z,21.30
2023-02-11T10:32:11.697Z,21.30
2023-02-11T10:34:42.231Z,21.40
2023-02-11T10:37:12.932Z,21.30
2023-02-11T10:39:41.317Z,21.40
2023-02-11T10:42:12.361Z,21.40
2023-02-11T10:44:54.906Z,21.40
2023-02-11T10:47:24.655Z,21.40
2023-02-11T10:49:51.545Z,21.40
2023-02-11T10:52:22.526Z,21.40
2023-02-11T10:55:01.709Z,21.40
2023-02-11T10:57:35.463Z,21.40
2023-02-11T11:00:24.552Z,21.40
2023-02-11T11:03:00.239Z,21.40
2023-02-11T11:05:36.141Z,21.40
2023-02-11T11:08:08.834Z,21.40
2023-02-11T11:10:44.704Z,21.40
2023-02-11T11:13:26.469Z,21.40
2023-02-11T11:16:17.586Z,21.40
2023-02-11T11:18:49.648Z,21.40
2023-02-11T11:21:21.748Z,21.40
2023-02-11T11:24:00.147Z,21.40
2023-02-11T11:26:38.836Z,21.40
2023-02-11T11:29:14.510Z,21.40
2023-02-11T11:31:51.798Z,21.40
2023-02-11T11:34:23.317Z,21.40
2023-02-11T11:36:50.894Z,21.40
2023-02-11T11:39:22.600Z,21.40
2023-02-11T11:41:54.884Z,21.40
2023-02-11T11:44:39.743Z,21.40
2023-02-11T11:47:12.423Z,21.40
2023-02-11T11:49:48.178Z,21.40
2023-02-11T11:52:28.302Z,21.40
2023-02-11T11:55:22.466Z,21.40
2023-02-11T11:57:49.537Z,21.40
2023-02-11T12:00:23.923Z,21.40
2023-02-11T12:03:00.450Z,21.40
2023-02-11T12:05:42.428Z,21.40
2023-02-11T12:08:15.179Z,21.40
2023-02-11T12:10:44.644Z,21.40
2023-02-11T12:13:23.523Z,21.40
2023-02-11T12:15:56.395Z,21.40
2023-02-11T12:19:02.876Z,21.40
2023-02-11T12:21:53.423Z,21.50
2023-02-11T12:24:21.200Z,21.40
2023-02-11T12:26:49.910Z,21.40
2023-02-11T12:29:32.161Z,21.50
2023-02-11T12:32:22.725Z,21.50
2023-02-11T12:34:52.412Z,21.50
2023-02-11T12:37:45.313Z,21.50
2023-02-11T12:40:15.763Z,21.50
2023-02-11T12:43:20.832Z,21.40
2023-02-11T12:45:47.550Z,21.50
2023-02-11T12:48:35.950Z,21.50
2023-02-11T12:51:20.668Z,21.50
2023-02-11T12:53:50.161Z,21.50
2023-02-11T12:56:34.111Z,21.50
2023-02-11T12:59:04.878Z,21.50
2023-02-11T13:01:39.454Z,21.50
2023-02-11T13:04:21.683Z,21.50
2023-02-11T13:07:06.318Z,21.50
2023-02-11T13:09:39.072Z,21.50
2023-02-11T13:12:26.047Z,21.50
2023-02-11T13:14:56.185Z,21.50
2023-02-11T13:17:34.749Z,21.50
2023-02-11T13:20:21.176Z,21.50
2023-02-11T13:23:17.038Z,21.50
2023-02-11T13:26:25.752Z,21.50
2023-02-11T13:29:02.628Z,21.50
2023-02-11T13:31:30.230Z,21.50
2023-02-11T13:33:57.081Z,21.50
2023-02-11T13:36:27.034Z,21.50
2023-02-11T13:38:58.510Z,21.50
2023-02-11T13:41:38.495Z,21.50
2023-02-11T13:44:11.099Z,21.50
2023-02-11T13:47:04.896Z,21.50
2023-02-11T13:49:40.681Z,21.50
2023-02-11T13:52:32.783Z,21.50
2023-02-11T13:55:21.706Z,21.50
2023-02-11T13:58:08.361Z,21.50
2023-02-11T14:00:35.084Z,21.50
2023-02-11T14:03:29.422Z,21.50
2023-02-11T14:06:26.507Z,21.50
2023-02-11T14:09:13.564Z,21.50
2023-02-11T14:11:46.860Z,21.50
2023-02-11T14:14:35.015Z,21.50
2023-02-11T14:17:07.845Z,21.50
2023-02-11T14:19:43.607Z,21.40
2023-02-11T14:22:30.186Z,21.50
2023-02-11T14:25:01.883Z,21.50
2023-02-11T14:27:31.142Z,21.40
2023-02-11T14:30:00.893Z,21.40
2023-02-11T14:33:04.967Z,21.40
2023-02-11T14:35:53.548Z,21.40
2023-02-11T14:38:57.220Z,21.40
2023-02-11T14:41:30.396Z,21.40
2023-02-11T14:44:01.060Z,21.40
2023-02-11T14:46:30.728Z,21.40
2023-02-11T14:49:01.727Z,21.40
2023-02-11T14:51:38.932Z,21.40
2023-02-11T14:54:13.361Z,21.40
2023-02-11T14:56:40.048Z,21.50
2023-02-11T14:59:21.149Z,21.50
2023-02-11T15:01:56.635Z,21.50
2023-02-11T15:04:27.382Z,21.50
2023-02-11T15:06:55.804Z,21.60
2023-02-11T15:09:34.004Z,21.60
2023-02-11T15:12:01.154Z,21.70
2023-02-11T15:14:31.688Z,21.70
2023-02-11T15:17:07.585Z,21.80
2023-02-11T15:19:45.481Z,21.80
2023-02-11T15:22:36.527Z,21.80
2023-02-11T15:25:11.190Z,21.70
2023-02-11T15:27:40.427Z,21.70
2023-02-11T15:30:32.134Z,21.70
2023-02-11T15:33:03.013Z,21.70
2023-02-11T15:35:32.810Z,21.70
2023-02-11T15:38:00.376Z,21.70
2023-02-11T15:40:29.858Z,21.60
2023-02-11T15:43:15.596Z,21.60
2023-02-11T15:45:56.397Z,21.60
2023-02-11T15:48:27.175Z,21.60
2023-02-11T15:50:56.561Z,21.60
2023-02-11T15:53:31.303Z,21.60
2023-02-11T15:56:26.454Z,21.60
2023-02-11T15:58:57.314Z,21.60
2023-02-11T16:01:35.589Z,21.60
2023-02-11T16:04:04.012Z,21.60
2023-02-11T16:06:41.709Z,21.60
2023-02-11T16:09:08.337Z,21.60
2023-02-11T16:11:56.133Z,21.60
2023-02-11T16:14:27.285Z,21.60
2023-02-11T16:17:01.125Z,21.60
2023-02-11T16:19:28.913Z,21.60
2023-02-11T16:25:46.840Z,21.60
2023-02-11T16:28:16.870Z,21.60
2023-02-11T16:30:43.658Z,21.60
2023-02-11T16:33:11.775Z,21.50
2023-02-11T16:35:38.587Z,21.50
2023-02-11T16:38:05.275Z,21.50
2023-02-11T16:40:31.984Z,21.50
2023-02-11T16:42:58.678Z,21.50
2023-02-11T16:45:25.342Z,21.50
2023-02-11T16:47:52.194Z,21.50
2023-02-11T16:50:24.823Z,21.50
2023-02-11T16:52:52.393Z,21.50
2023-02-11T16:55:21.939Z,21.50
2023-02-11T16:57:49.115Z,21.50
2023-02-11T17:00:16.806Z,21.50
2023-02-11T17:02:43.812Z,21.50
2023-02-11T17:05:19.987Z,21.50
2023-02-11T17:07:46.973Z,21.60
2023-02-11T17:10:17.441Z,21.60
2023-02-11T17:12:44.161Z,21.60
2023-02-11T17:15:11.011Z,21.60
2023-02-11T17:17:37.751Z,21.60
2023-02-11T17:20:05.248Z,21.70
2023-02-11T17:22:31.963Z,21.70
2023-02-11T17:24:59.113Z,21.70
2023-02-11T17:27:25.830Z,21.80
2023-02-11T17:29:52.498Z,21.80
2023-02-11T17:32:19.277Z,21.80
2023-02-11T17:34:46.114Z,21.80
2023-02-11T17:37:12.787Z,21.80
2023-02-11T17:39:40.421Z,21.90
2023-02-11T17:42:08.531Z,21.90
2023-02-11T17:44:35.674Z,21.90
2023-02-11T17:47:02.450Z,21.90
2023-02-11T17:49:29.199Z,21.90
2023-02-11T17:51:56.189Z,21.90
2023-02-11T17:54:22.912Z,21.90
2023-02-11T17:56:50.602Z,21.90
2023-02-11T17:59:17.520Z,21.90
2023-02-11T18:01:44.284Z,22.00
2023-02-11T18:04:14.621Z,22.00
2023-02-11T18:06:41.361Z,22.00
2023-02-11T18:09:08.229Z,22.00
2023-02-11T18:11:37.269Z,22.00
2023-02-11T18:14:07.745Z,22.00
2023-02-11T18:16:36.536Z,22.00
2023-02-11T18:19:04.416Z,22.00
2023-02-11T18:21:31.108Z,22.00
2023-02-11T18:23:59.168Z,22.00
2023-02-11T18:26:28.197Z,22.10
2023-02-11T18:28:57.693Z,22.10
2023-02-11T18:31:25.322Z,22.10
2023-02-11T18:33:53.168Z,22.00
2023-02-11T18:36:20.381Z,21.90
2023-02-11T18:38:47.187Z,21.90
2023-02-11T18:41:14.522Z,21.90
2023-02-11T18:43:41.324Z,21.80
2023-02-11T18:46:11.165Z,21.80
2023-02-11T18:48:38.225Z,21.80
2023-02-11T18:51:13.516Z,21.80
2023-02-11T18:53:40.613Z,21.90
2023-02-11T18:56:20.450Z,21.90
2023-02-11T18:58:48.206Z,21.90
2023-02-11T19:01:19.468Z,21.90
2023-02-11T19:03:46.987Z,21.90
2023-02-11T19:06:16.073Z,21.90
2023-02-11T19:08:43.052Z,21.90
2023-02-11T19:11:10.010Z,21.90
2023-02-11T19:13:36.752Z,21.90
2023-02-11T19:16:11.209Z,21.90
2023-02-11T19:18:38.704Z,21.90
2023-02-11T19:21:10.362Z,21.90
2023-02-11T19:23:37.902Z,21.90
2023-02-11T19:26:06.287Z,22.00
2023-02-11T19:28:34.139Z,21.90
2023-02-11T19:31:10.037Z,22.00
2023-02-11T19:33:36.828Z,22.00
2023-02-11T19:36:07.710Z,22.00
2023-02-11T19:38:35.672Z,22.00
2023-02-11T19:41:02.486Z,22.00
2023-02-11T19:43:29.353Z,22.00
2023-02-11T19:45:57.268Z,22.00
2023-02-11T19:48:24.686Z,22.00
2023-02-11T19:50:51.558Z,22.00
2023-02-11T19:53:18.346Z,22.00
2023-02-11T19:55:45.101Z,22.00
2023-02-11T19:58:11.828Z,22.00
2023-02-11T20:00:39.204Z,21.90
2023-02-11T20:03:06.109Z,22.00
2023-02-11T20:05:32.967Z,21.90
2023-02-11T20:07:59.673Z,22.00
2023-02-11T20:10:26.362Z,22.00
2023-02-11T20:12:53.116Z,22.00
2023-02-11T20:15:19.853Z,22.00
2023-02-11T20:17:46.595Z,22.00
2023-02-11T20:20:13.485Z,22.00
2023-02-11T20:22:40.175Z,22.00
2023-02-11T20:25:07.013Z,22.00
2023-02-11T20:27:33.848Z,22.00
2023-02-11T20:30:00.563Z,22.00
2023-02-11T20:32:27.290Z,22.00
2023-02-11T20:34:53.965Z,22.00
2023-02-11T20:37:20.625Z,22.00
2023-02-11T20:39:47.311Z,22.00
2023-02-11T20:42:15.025Z,22.00
2023-02-11T20:44:41.707Z,22.00
2023-02-11T20:47:08.478Z,22.00
2023-02-11T20:49:35.149Z,22.00
2023-02-11T20:52:01.867Z,22.00
2023-02-11T20:54:28.635Z,22.00
2023-02-11T20:56:56.831Z,22.10
2023-02-11T20:59:24.050Z,22.10
2023-02-11T21:01:56.349Z,22.00
2023-02-11T21:04:27.159Z,21.70
2023-02-11T21:06:57.284Z,21.40
2023-02-11T21:09:27.790Z,21.10
2023-02-11T21:11:54.838Z,20.90
2023-02-11T21:14:23.954Z,20.60
2023-02-11T21:16:51.192Z,20.40
2023-02-11T21:19:18.373Z,20.20
2023-02-11T21:21:45.108Z,20.10
2023-02-11T21:24:12.094Z,19.90
2023-02-11T21:26:39.430Z,19.80
2023-02-11T21:29:07.544Z,19.70
2023-02-11T21:31:35.458Z,19.60
2023-02-11T21:34:02.807Z,19.40
2023-02-11T21:36:30.087Z,19.30
2023-02-11T21:38:57.030Z,19.20
2023-02-11T21:41:24.818Z,19.10
2023-02-11T21:43:52.420Z,19.00
2023-02-11T21:46:19.585Z,18.90
2023-02-11T21:48:46.643Z,18.90
2023-02-11T21:51:15.896Z,18.80
2023-02-11T21:53:42.590Z,18.70
2023-02-11T21:56:15.965Z,18.60
2023-02-11T21:58:43.569Z,18.60
2023-02-11T22:01:15.682Z,18.60
2023-02-11T22:03:42.874Z,18.50
2023-02-11T22:06:15.237Z,18.40
2023-02-11T22:08:42.166Z,18.40
2023-02-11T22:11:12.147Z,18.40
2023-02-11T22:13:39.345Z,18.30
2023-02-11T22:16:09.202Z,18.20
2023-02-11T22:18:36.174Z,18.20
2023-02-11T22:21:09.035Z,18.20
2023-02-11T22:23:37.130Z,18.20
2023-02-11T22:26:08.741Z,18.10
2023-02-11T22:28:38.796Z,18.10
2023-02-11T22:31:05.675Z,18.00
2023-02-11T22:33:32.488Z,18.00
2023-02-11T22:36:07.698Z,18.00
2023-02-11T22:38:34.910Z,18.00
2023-02-11T22:41:06.629Z,18.00
2023-02-11T22:43:33.374Z,17.90
2023-02-11T22:46:04.929Z,17.90
2023-02-11T22:48:32.181Z,17.90
2023-02-11T22:51:07.522Z,17.90
2023-02-11T22:53:34.678Z,17.90
2023-02-11T22:56:07.168Z,17.90
2023-02-11T22:58:35.209Z,17.90
2023-02-11T23:01:02.334Z,17.90
2023-02-11T23:03:29.416Z,17.90
2023-02-11T23:05:57.950Z,17.90
2023-02-11T23:08:25.327Z,17.80
2023-02-11T23:10:52.076Z,17.80
2023-02-11T23:13:18.835Z,17.80
2023-02-11T23:15:46.599Z,17.80
2023-02-11T23:18:14.064Z,17.80
2023-02-11T23:20:43.370Z,17.80
2023-02-11T23:23:10.066Z,17.70
2023-02-11T23:25:44.937Z,17.70
2023-02-11T23:28:12.424Z,17.70
2023-02-11T23:30:39.708Z,17.70
2023-02-11T23:33:06.408Z,17.60
2023-02-11T23:35:33.241Z,17.60
2023-02-11T23:37:59.965Z,17.60
2023-02-11T23:40:26.689Z,17.70
2023-02-11T23:42:53.408Z,17.70
2023-02-11T23:45:20.196Z,17.60
2023-02-11T23:47:47.671Z,17.60
2023-02-11T23:50:14.412Z,17.60
2023-02-11T23:52:41.338Z,17.50
2023-02-11T23:55:08.250Z,17.50
2023-02-11T23:57:35.435Z,17.50
